createdAt,value
2023-03-21T00:00:17.156Z,869.69
2023-03-21T00:01:16.137Z,869.74
2023-03-21T00:02:16.175Z,870.45
2023-03-21T00:03:16.177Z,870.51
2023-03-21T00:04:16.113Z,870.80
2023-03-21T00:05:16.321Z,870.66
2023-03-21T00:06:16.067Z,871.11
2023-03-21T00:07:17.212Z,872.14
2023-03-21T00:08:16.042Z,872.77
2023-03-21T00:09:16.061Z,872.95
2023-03-21T00:10:23.936Z,872.76
2023-03-21T00:11:17.026Z,873.49
2023-03-21T00:12:16.001Z,873.62
2023-03-21T00:13:16.016Z,873.63
2023-03-21T00:14:15.992Z,873.38
2023-03-21T00:15:15.990Z,873.44
2023-03-21T00:16:23.102Z,873.18
2023-03-21T00:17:16.941Z,873.41
2023-03-21T00:18:15.950Z,873.03
2023-03-21T00:19:15.933Z,873.41
2023-03-21T00:20:15.927Z,873.30
2023-03-21T00:22:16.885Z,873.56
2023-03-21T00:23:15.875Z,873.46
2023-03-21T00:24:15.857Z,873.34
2023-03-21T00:25:15.855Z,873.17
2023-03-21T00:26:15.874Z,873.21
2023-03-21T00:27:41.328Z,873.18
2023-03-21T00:28:16.845Z,873.45
2023-03-21T00:29:16.638Z,873.21
2023-03-21T00:30:15.816Z,873.41
2023-03-21T00:31:15.781Z,873.44
2023-03-21T00:32:15.768Z,873.51
2023-03-21T00:33:22.302Z,873.60
2023-03-21T00:34:22.463Z,874.20
2023-03-21T00:35:57.364Z,874.19
2023-03-21T00:36:16.774Z,874.62
2023-03-21T00:37:15.705Z,874.80
2023-03-21T00:38:15.706Z,874.73
2023-03-21T00:39:15.688Z,874.85
2023-03-21T00:40:26.644Z,874.45
2023-03-21T00:41:26.293Z,874.55
2023-03-21T00:42:16.655Z,874.47
2023-03-21T00:43:15.648Z,874.46
2023-03-21T00:44:15.924Z,875.20
2023-03-21T00:45:15.644Z,875.49
2023-03-21T00:46:15.613Z,874.93
2023-03-21T00:47:15.614Z,874.80
2023-03-21T00:48:15.647Z,875.00
2023-03-21T00:49:15.568Z,875.49
2023-03-21T00:50:15.582Z,875.49
2023-03-21T00:51:15.612Z,875.72
2023-03-21T00:52:20.310Z,875.52
2023-03-21T00:53:16.518Z,875.58
2023-03-21T00:54:15.517Z,875.57
2023-03-21T00:55:15.531Z,875.49
2023-03-21T00:56:15.488Z,875.80
2023-03-21T00:57:15.498Z,876.21
2023-03-21T00:58:15.490Z,877.19
2023-03-21T00:59:15.470Z,877.61
2023-03-21T01:00:15.441Z,877.64
2023-03-21T01:01:15.487Z,877.68
2023-03-21T01:02:15.418Z,877.68
2023-03-21T01:03:24.348Z,877.75
2023-03-21T01:04:16.409Z,877.41
2023-03-21T01:05:15.400Z,877.24
2023-03-21T01:06:15.388Z,876.89
2023-03-21T01:07:15.350Z,876.79
2023-03-21T01:08:26.564Z,876.63
2023-03-21T01:09:17.791Z,876.61
2023-03-21T01:10:15.330Z,876.88
2023-03-21T01:11:15.337Z,877.00
2023-03-21T01:12:15.309Z,877.10
2023-03-21T01:13:16.510Z,877.00
2023-03-21T01:14:22.500Z,877.21
2023-03-21T01:15:17.342Z,876.88
2023-03-21T01:16:15.285Z,876.69
2023-03-21T01:17:16.122Z,877.24
2023-03-21T01:18:15.231Z,877.21
2023-03-21T01:19:25.082Z,877.20
2023-03-21T01:20:16.232Z,876.73
2023-03-21T01:21:15.202Z,876.80
2023-03-21T01:22:15.180Z,876.68
2023-03-21T01:23:16.061Z,876.73
2023-03-21T01:24:15.173Z,877.10
2023-03-21T01:25:22.276Z,877.84
2023-03-21T01:26:16.141Z,878.13
2023-03-21T01:27:15.116Z,878.06
2023-03-21T01:28:15.122Z,877.79
2023-03-21T01:29:15.132Z,878.07
2023-03-21T01:30:21.583Z,877.92
2023-03-21T01:31:16.141Z,878.05
2023-03-21T01:32:16.221Z,877.60
2023-03-21T01:33:15.060Z,878.09
2023-03-21T01:34:16.028Z,878.67
2023-03-21T01:35:15.030Z,878.45
2023-03-21T01:36:16.200Z,878.78
2023-03-21T01:37:15.005Z,878.80
2023-03-21T01:38:14.993Z,878.69
2023-03-21T01:39:14.984Z,878.39
2023-03-21T01:40:14.971Z,878.58
2023-03-21T01:41:19.891Z,878.55
2023-03-21T01:42:15.951Z,879.19
2023-03-21T01:43:14.921Z,879.42
2023-03-21T01:44:14.934Z,879.39
2023-03-21T01:45:14.912Z,880.16
2023-03-21T01:46:14.935Z,879.87
2023-03-21T01:47:14.886Z,879.81
2023-03-21T01:48:14.904Z,879.51
2023-03-21T01:49:14.875Z,879.24
2023-03-21T01:50:14.845Z,879.62
2023-03-21T01:51:14.857Z,879.94
2023-03-21T01:52:23.579Z,880.11
2023-03-21T01:53:15.814Z,880.01
2023-03-21T01:54:14.807Z,879.17
2023-03-21T01:55:14.823Z,879.30
2023-03-21T01:56:15.963Z,879.39
2023-03-21T01:57:14.764Z,879.35
2023-03-21T01:58:14.774Z,878.79
2023-03-21T01:59:14.752Z,878.05
2023-03-21T02:00:14.777Z,877.88
2023-03-21T02:01:14.801Z,877.59
2023-03-21T02:02:14.705Z,877.70
2023-03-21T02:03:23.515Z,877.41
2023-03-21T02:04:15.727Z,877.48
2023-03-21T02:05:14.722Z,877.77
2023-03-21T02:06:14.681Z,878.35
2023-03-21T02:07:14.653Z,878.55
2023-03-21T02:08:14.636Z,878.52
2023-03-21T02:09:14.858Z,878.35
2023-03-21T02:10:14.654Z,878.39
2023-03-21T02:11:14.641Z,878.40
2023-03-21T02:12:14.606Z,879.17
2023-03-21T02:13:14.574Z,879.47
2023-03-21T02:14:17.767Z,879.23
2023-03-21T02:15:15.584Z,879.36
2023-03-21T02:16:14.619Z,879.25
2023-03-21T02:17:14.541Z,878.58
2023-03-21T02:18:14.528Z,878.73
2023-03-21T02:19:17.665Z,878.89
2023-03-21T02:20:15.507Z,879.34
2023-03-21T02:21:14.489Z,879.62
2023-03-21T02:22:14.490Z,879.72
2023-03-21T02:23:14.467Z,880.57
2023-03-21T02:24:14.484Z,880.96
2023-03-21T02:25:21.797Z,881.15
2023-03-21T02:26:15.463Z,881.69
2023-03-21T02:27:14.429Z,882.15
2023-03-21T02:28:14.409Z,882.20
2023-03-21T02:29:15.034Z,882.25
2023-03-21T02:30:20.218Z,882.46
2023-03-21T02:31:15.402Z,882.51
2023-03-21T02:32:22.646Z,883.02
2023-03-21T02:33:15.379Z,882.94
2023-03-21T02:34:14.332Z,882.79
2023-03-21T02:35:14.338Z,882.58
2023-03-21T02:36:14.933Z,882.82
2023-03-21T02:37:14.309Z,883.01
2023-03-21T02:38:14.331Z,882.89
2023-03-21T02:39:15.752Z,882.94
2023-03-21T02:40:14.301Z,883.35
2023-03-21T02:41:19.026Z,883.41
2023-03-21T02:42:15.273Z,883.47
2023-03-21T02:43:22.920Z,883.76
2023-03-21T02:44:15.217Z,883.42
2023-03-21T02:45:14.202Z,883.61
2023-03-21T02:46:14.229Z,883.70
2023-03-21T02:47:14.297Z,883.93
2023-03-21T02:48:26.624Z,884.42
2023-03-21T02:49:15.184Z,884.47
2023-03-21T02:50:14.153Z,884.43
2023-03-21T02:51:14.149Z,884.95
2023-03-21T02:52:18.679Z,884.54
2023-03-21T02:53:15.109Z,884.57
2023-03-21T02:54:30.226Z,884.20
2023-03-21T02:55:15.111Z,884.52
2023-03-21T02:56:14.081Z,884.97
2023-03-21T02:57:14.096Z,885.04
2023-03-21T02:58:14.075Z,885.59
2023-03-21T02:59:14.066Z,885.48
2023-03-21T03:00:17.071Z,885.45
2023-03-21T03:01:14.073Z,885.90
2023-03-21T03:02:14.016Z,886.54
2023-03-21T03:03:20.950Z,887.40
2023-03-21T03:04:15.014Z,888.43
2023-03-21T03:05:20.645Z,889.77
2023-03-21T03:06:14.979Z,890.41
2023-03-21T03:07:13.957Z,890.79
2023-03-21T03:08:14.241Z,890.62
2023-03-21T03:09:13.948Z,891.40
2023-03-21T03:10:13.929Z,892.41
2023-03-21T03:11:13.908Z,893.19
2023-03-21T03:12:13.907Z,893.80
2023-03-21T03:13:13.888Z,894.48
2023-03-21T03:14:38.587Z,894.73
2023-03-21T03:15:14.865Z,895.11
2023-03-21T03:16:13.867Z,896.09
2023-03-21T03:17:13.859Z,897.03
2023-03-21T03:18:13.830Z,897.88
2023-03-21T03:19:13.828Z,898.86
2023-03-21T03:20:16.986Z,899.26
2023-03-21T03:21:13.790Z,899.75
2023-03-21T03:22:13.809Z,899.83
2023-03-21T03:23:13.825Z,900.83
2023-03-21T03:24:13.761Z,901.88
2023-03-21T03:25:23.042Z,902.79
2023-03-21T03:26:14.742Z,903.80
2023-03-21T03:27:13.729Z,904.85
2023-03-21T03:28:13.732Z,905.88
2023-03-21T03:29:13.698Z,907.03
2023-03-21T03:30:13.689Z,907.53
2023-03-21T03:31:13.937Z,908.20
2023-03-21T03:32:13.683Z,909.86
2023-03-21T03:33:13.664Z,912.33
2023-03-21T03:34:13.639Z,914.16
2023-03-21T03:35:13.639Z,915.07
2023-03-21T03:36:28.453Z,915.72
2023-03-21T03:37:14.892Z,916.06
2023-03-21T03:38:13.598Z,916.04
2023-03-21T03:39:13.583Z,916.43
2023-03-21T03:40:13.585Z,916.60
2023-03-21T03:41:13.557Z,916.55
2023-03-21T03:42:27.234Z,916.53
2023-03-21T03:43:14.531Z,916.93
2023-03-21T03:44:13.532Z,916.98
2023-03-21T03:45:13.530Z,916.55
2023-03-21T03:46:13.522Z,916.53
2023-03-21T03:47:26.284Z,916.23
2023-03-21T03:48:14.528Z,915.98
2023-03-21T03:49:13.457Z,914.85
2023-03-21T03:50:13.468Z,914.04
2023-03-21T03:51:13.429Z,912.78
2023-03-21T03:52:13.432Z,912.20
2023-03-21T03:53:18.421Z,911.78
2023-03-21T03:54:14.413Z,910.06
2023-03-21T03:55:13.400Z,909.87
2023-03-21T03:56:13.388Z,910.13
2023-03-21T03:57:13.378Z,910.43
2023-03-21T03:58:22.889Z,909.62
2023-03-21T03:59:14.351Z,909.02
2023-03-21T04:00:13.323Z,908.77
2023-03-21T04:01:13.319Z,908.26
2023-03-21T04:02:13.383Z,908.10
2023-03-21T04:03:13.346Z,907.57
2023-03-21T04:04:13.901Z,906.70
2023-03-21T04:05:13.282Z,907.15
2023-03-21T04:06:13.275Z,907.61
2023-03-21T04:07:13.252Z,907.34
2023-03-21T04:08:13.236Z,907.23
2023-03-21T04:09:21.834Z,906.34
2023-03-21T04:10:14.233Z,905.73
2023-03-21T04:11:13.211Z,905.66
2023-03-21T04:12:13.196Z,905.84
2023-03-21T04:13:13.197Z,906.29
2023-03-21T04:14:13.166Z,906.47
2023-03-21T04:15:13.204Z,906.73
2023-03-21T04:16:13.328Z,907.02
2023-03-21T04:17:13.158Z,906.88
2023-03-21T04:18:13.159Z,907.52
2023-03-21T04:19:13.117Z,906.61
2023-03-21T04:20:23.583Z,906.17
2023-03-21T04:21:14.087Z,906.06
2023-03-21T04:22:13.082Z,907.06
2023-03-21T04:23:13.075Z,907.12
2023-03-21T04:24:13.805Z,906.63
2023-03-21T04:25:15.438Z,906.80
2023-03-21T04:26:13.048Z,906.83
2023-03-21T04:27:13.019Z,906.66
2023-03-21T04:28:12.990Z,907.25
2023-03-21T04:29:12.991Z,907.46
2023-03-21T04:30:13.018Z,907.41
2023-03-21T04:31:24.611Z,907.25
2023-03-21T04:32:14.009Z,907.57
2023-03-21T04:33:12.947Z,908.24
2023-03-21T04:34:13.015Z,908.00
2023-03-21T04:35:12.941Z,908.59
2023-03-21T04:36:12.929Z,908.68
2023-03-21T04:37:12.933Z,908.68
2023-03-21T04:38:12.892Z,909.20
2023-03-21T04:39:12.890Z,908.59
2023-03-21T04:40:12.869Z,907.71
2023-03-21T04:41:12.861Z,907.63
2023-03-21T04:42:12.868Z,907.79
2023-03-21T04:43:12.820Z,907.83
2023-03-21T04:44:12.829Z,908.31
2023-03-21T04:45:12.821Z,908.57
2023-03-21T04:46:12.831Z,909.09
2023-03-21T04:47:12.800Z,909.96
2023-03-21T04:48:12.799Z,910.55
2023-03-21T04:49:12.782Z,910.26
2023-03-21T04:50:12.761Z,910.28
2023-03-21T04:51:12.730Z,910.12
2023-03-21T04:52:12.759Z,909.95
2023-03-21T04:53:12.701Z,910.09
2023-03-21T04:54:47.750Z,912.08
2023-03-21T04:55:49.618Z,911.09
2023-03-21T04:56:47.719Z,910.83
2023-03-21T04:57:47.712Z,910.44
2023-03-21T04:58:47.688Z,909.82
2023-03-21T04:59:47.676Z,909.26
2023-03-21T05:00:47.700Z,908.60
2023-03-21T05:01:47.664Z,907.95
2023-03-21T05:02:47.751Z,907.75
2023-03-21T05:03:50.436Z,907.26
2023-03-21T05:04:47.630Z,906.88
2023-03-21T05:05:47.611Z,906.69
2023-03-21T05:06:47.597Z,906.43
2023-03-21T05:07:47.593Z,906.78
2023-03-21T05:08:47.571Z,906.49
2023-03-21T05:09:47.580Z,906.25
2023-03-21T05:10:47.562Z,905.76
2023-03-21T05:11:47.533Z,905.39
2023-03-21T05:12:47.569Z,905.14
2023-03-21T05:13:47.519Z,905.68
2023-03-21T05:14:47.522Z,906.14
2023-03-21T05:15:47.519Z,906.35
2023-03-21T05:16:47.547Z,907.10
2023-03-21T05:17:47.471Z,908.10
2023-03-21T05:18:47.459Z,908.11
2023-03-21T05:19:47.483Z,908.37
2023-03-21T05:20:47.713Z,909.19
2023-03-21T05:21:47.413Z,909.46
2023-03-21T05:22:47.431Z,909.79
2023-03-21T05:23:47.420Z,910.26
2023-03-21T05:24:47.420Z,910.51
2023-03-21T05:25:47.388Z,909.30
2023-03-21T05:26:47.389Z,909.04
2023-03-21T05:27:47.380Z,908.62
2023-03-21T05:28:47.331Z,908.12
2023-03-21T05:29:47.336Z,908.28
2023-03-21T05:30:47.438Z,909.93
2023-03-21T05:31:47.312Z,911.53
2023-03-21T05:32:47.323Z,912.79
2023-03-21T05:33:47.298Z,913.35
2023-03-21T05:34:47.272Z,913.74
2023-03-21T05:35:47.310Z,913.85
2023-03-21T05:36:47.254Z,913.98
2023-03-21T05:37:47.257Z,913.98
2023-03-21T05:38:47.221Z,914.07
2023-03-21T05:39:47.233Z,914.71
2023-03-21T05:40:47.213Z,916.31
2023-03-21T05:41:47.197Z,916.95
2023-03-21T05:42:47.203Z,918.73
2023-03-21T05:43:47.183Z,919.16
2023-03-21T05:44:47.177Z,919.83
2023-03-21T05:45:47.144Z,918.53
2023-03-21T05:46:47.158Z,916.09
2023-03-21T05:47:47.217Z,913.65
2023-03-21T05:48:47.129Z,911.80
2023-03-21T05:49:47.128Z,911.65
2023-03-21T05:50:47.086Z,911.69
2023-03-21T05:51:47.074Z,912.40
2023-03-21T05:52:47.062Z,913.48
2023-03-21T05:53:47.057Z,914.12
2023-03-21T05:54:47.073Z,915.65
2023-03-21T05:55:47.038Z,916.85
2023-03-21T05:56:47.025Z,916.57
2023-03-21T05:57:47.024Z,915.08
2023-03-21T05:58:47.024Z,914.46
2023-03-21T05:59:47.017Z,913.75
2023-03-21T06:00:46.996Z,913.74
2023-03-21T06:01:46.990Z,914.61
2023-03-21T06:02:47.278Z,914.85
2023-03-21T06:03:46.970Z,915.34
2023-03-21T06:04:46.951Z,915.59
2023-03-21T06:05:46.935Z,915.86
2023-03-21T06:06:46.928Z,915.26
2023-03-21T06:07:46.899Z,914.49
2023-03-21T06:08:46.892Z,914.15
2023-03-21T06:09:46.885Z,913.95
2023-03-21T06:10:46.839Z,914.68
2023-03-21T06:11:46.851Z,914.68
2023-03-21T06:12:46.821Z,913.89
2023-03-21T06:13:46.865Z,913.35
2023-03-21T06:14:46.810Z,912.80
2023-03-21T06:15:46.825Z,913.06
2023-03-21T06:16:46.792Z,913.60
2023-03-21T06:17:46.768Z,914.92
2023-03-21T06:18:46.782Z,915.81
2023-03-21T06:19:46.769Z,917.10
2023-03-21T06:20:46.742Z,917.16
2023-03-21T06:21:46.742Z,917.16
2023-03-21T06:22:46.719Z,916.76
2023-03-21T06:23:46.701Z,916.10
2023-03-21T06:24:46.741Z,915.93
2023-03-21T06:25:46.692Z,915.94
2023-03-21T06:26:46.758Z,915.92
2023-03-21T06:27:46.651Z,916.59
2023-03-21T06:28:46.651Z,918.06
2023-03-21T06:29:46.671Z,918.59
2023-03-21T06:30:46.611Z,918.97
2023-03-21T06:31:46.653Z,919.17
2023-03-21T06:32:46.578Z,918.55
2023-03-21T06:33:46.610Z,918.71
2023-03-21T06:34:46.617Z,918.42
2023-03-21T06:35:46.613Z,918.58
2023-03-21T06:36:46.592Z,918.80
2023-03-21T06:37:46.550Z,919.78
2023-03-21T06:38:46.552Z,919.80
2023-03-21T06:39:46.535Z,919.72
2023-03-21T06:40:46.513Z,920.17
2023-03-21T06:41:46.512Z,920.37
2023-03-21T06:42:46.505Z,920.83
2023-03-21T06:43:46.493Z,920.35
2023-03-21T06:44:46.461Z,921.08
2023-03-21T06:45:46.751Z,921.36
2023-03-21T06:46:48.316Z,921.07
2023-03-21T06:47:46.450Z,921.47
2023-03-21T06:48:46.428Z,921.65
2023-03-21T06:49:46.494Z,921.67
2023-03-21T06:50:46.724Z,921.59
2023-03-21T06:51:46.384Z,921.67
2023-03-21T06:52:46.374Z,922.30
2023-03-21T06:53:46.399Z,922.26
2023-03-21T06:54:46.368Z,922.79
2023-03-21T06:55:46.334Z,923.75
2023-03-21T06:56:46.344Z,924.05
2023-03-21T06:57:46.303Z,923.65
2023-03-21T06:58:46.325Z,923.19
2023-03-21T06:59:46.317Z,922.92
2023-03-21T07:00:46.352Z,923.08
2023-03-21T07:01:46.256Z,923.59
2023-03-21T07:02:46.304Z,922.62
2023-03-21T07:03:46.276Z,922.04
2023-03-21T07:04:46.266Z,920.49
2023-03-21T07:05:46.216Z,919.66
2023-03-21T07:06:46.229Z,917.89
2023-03-21T07:07:46.198Z,916.75
2023-03-21T07:08:46.176Z,915.28
2023-03-21T07:09:46.185Z,913.76
2023-03-21T07:10:46.177Z,913.07
2023-03-21T07:11:46.158Z,912.51
2023-03-21T07:12:46.431Z,912.35
2023-03-21T07:13:46.154Z,913.14
2023-03-21T07:14:46.147Z,914.13
2023-03-21T07:15:46.143Z,915.17
2023-03-21T07:16:46.203Z,916.42
2023-03-21T07:17:46.081Z,917.33
2023-03-21T07:18:46.077Z,917.71
2023-03-21T07:19:46.071Z,916.78
2023-03-21T07:20:46.050Z,914.82
2023-03-21T07:21:46.038Z,912.37
2023-03-21T07:22:46.018Z,909.61
2023-03-21T07:23:45.999Z,907.33
2023-03-21T07:24:50.954Z,905.59
2023-03-21T07:25:47.051Z,904.58
2023-03-21T07:26:45.978Z,903.22
2023-03-21T07:27:45.969Z,901.57
2023-03-21T07:28:45.975Z,899.22
2023-03-21T07:29:45.939Z,897.86
2023-03-21T07:30:45.931Z,897.72
2023-03-21T07:31:45.996Z,898.29
2023-03-21T07:32:45.919Z,898.10
2023-03-21T07:33:45.941Z,897.68
2023-03-21T07:34:45.884Z,898.32
2023-03-21T07:35:45.887Z,898.67
2023-03-21T07:36:45.887Z,897.30
2023-03-21T07:37:45.851Z,896.73
2023-03-21T07:38:45.900Z,897.40
2023-03-21T07:39:45.852Z,897.78
2023-03-21T07:40:45.822Z,898.18
2023-03-21T07:41:45.810Z,898.59
2023-03-21T07:42:45.801Z,898.93
2023-03-21T07:43:45.824Z,900.54
2023-03-21T07:44:45.783Z,901.10
2023-03-21T07:45:45.814Z,903.79
2023-03-21T07:46:45.761Z,903.14
2023-03-21T07:47:45.760Z,903.21
2023-03-21T07:48:45.768Z,901.76
2023-03-21T07:49:45.730Z,901.65
2023-03-21T07:50:45.710Z,904.69
2023-03-21T07:51:45.721Z,906.26
2023-03-21T07:52:45.681Z,906.84
2023-03-21T07:53:46.069Z,907.24
2023-03-21T07:54:45.694Z,908.74
2023-03-21T07:55:45.638Z,910.19
2023-03-21T07:56:45.679Z,912.89
2023-03-21T07:57:45.627Z,915.13
2023-03-21T07:58:45.622Z,917.49
2023-03-21T07:59:46.326Z,918.95
2023-03-21T08:00:45.601Z,919.08
2023-03-21T08:01:45.589Z,919.46
2023-03-21T08:02:45.595Z,920.23
2023-03-21T08:03:45.655Z,922.20
2023-03-21T08:04:45.913Z,924.76
2023-03-21T08:05:45.551Z,927.81
2023-03-21T08:06:45.532Z,931.01
2023-03-21T08:07:45.543Z,931.86
2023-03-21T08:08:45.566Z,931.68
2023-03-21T08:09:45.513Z,930.54
2023-03-21T08:10:45.503Z,930.26
2023-03-21T08:11:45.478Z,930.65
2023-03-21T08:12:45.522Z,931.09
2023-03-21T08:13:45.441Z,931.87
2023-03-21T08:14:45.447Z,930.97
2023-03-21T08:15:45.422Z,931.73
2023-03-21T08:16:45.669Z,932.91
2023-03-21T08:17:45.509Z,932.42
2023-03-21T08:18:45.393Z,932.08
2023-03-21T08:19:45.416Z,931.88
2023-03-21T08:20:45.385Z,932.30
2023-03-21T08:21:45.367Z,932.22
2023-03-21T08:22:45.369Z,933.55
2023-03-21T08:23:45.644Z,933.31
2023-03-21T08:24:45.326Z,932.94
2023-03-21T08:25:45.310Z,933.65
2023-03-21T08:26:45.312Z,937.83
2023-03-21T08:27:45.312Z,942.80
2023-03-21T08:28:45.309Z,946.75
2023-03-21T08:29:45.288Z,949.41
2023-03-21T08:30:45.321Z,950.37
2023-03-21T08:31:45.566Z,950.27
2023-03-21T08:32:45.234Z,949.57
2023-03-21T08:33:45.239Z,948.69
2023-03-21T08:34:45.259Z,948.02
2023-03-21T08:35:45.551Z,948.06
2023-03-21T08:36:45.225Z,947.77
2023-03-21T08:37:45.204Z,947.60
2023-03-21T08:38:45.174Z,947.25
2023-03-21T08:39:45.243Z,946.48
2023-03-21T08:40:45.165Z,944.95
2023-03-21T08:41:45.878Z,943.96
2023-03-21T08:42:45.150Z,943.09
2023-03-21T08:43:45.108Z,944.14
2023-03-21T08:44:45.119Z,943.36
2023-03-21T08:45:45.083Z,944.33
2023-03-21T08:46:45.146Z,945.68
2023-03-21T08:47:45.112Z,946.62
2023-03-21T08:48:45.052Z,949.15
2023-03-21T08:49:45.050Z,952.67
2023-03-21T08:50:45.029Z,958.27
2023-03-21T08:51:45.036Z,962.55
2023-03-21T08:52:45.019Z,965.69
2023-03-21T08:53:44.992Z,967.75
2023-03-21T08:54:44.994Z,969.25
2023-03-21T08:55:45.004Z,971.45
2023-03-21T08:56:44.971Z,973.58
2023-03-21T08:57:44.961Z,975.69
2023-03-21T08:58:45.283Z,976.77
2023-03-21T08:59:44.974Z,978.25
2023-03-21T09:00:44.908Z,976.84
2023-03-21T09:01:45.073Z,974.23
2023-03-21T09:02:44.911Z,970.53
2023-03-21T09:03:44.893Z,966.66
2023-03-21T09:04:45.047Z,965.28
2023-03-21T09:05:44.902Z,964.17
2023-03-21T09:06:44.870Z,963.65
2023-03-21T09:07:44.865Z,963.61
2023-03-21T09:08:44.844Z,964.43
2023-03-21T09:09:47.737Z,964.01
2023-03-21T09:10:46.116Z,964.24
2023-03-21T09:11:44.819Z,968.64
2023-03-21T09:12:44.843Z,971.58
2023-03-21T09:13:44.808Z,976.22
2023-03-21T09:14:44.806Z,980.95
2023-03-21T09:15:45.012Z,983.98
2023-03-21T09:16:44.728Z,986.69
2023-03-21T09:17:44.736Z,988.13
2023-03-21T09:18:44.732Z,990.14
2023-03-21T09:19:44.975Z,991.22
2023-03-21T09:20:44.700Z,990.94
2023-03-21T09:21:44.690Z,989.74
2023-03-21T09:22:44.691Z,987.86
2023-03-21T09:23:44.652Z,985.31
2023-03-21T09:24:44.650Z,981.57
2023-03-21T09:25:44.617Z,978.38
2023-03-21T09:26:44.608Z,975.20
2023-03-21T09:27:45.488Z,972.95
2023-03-21T09:28:44.605Z,970.20
2023-03-21T09:29:44.927Z,966.10
2023-03-21T09:30:44.594Z,961.73
2023-03-21T09:31:44.575Z,958.61
2023-03-21T09:32:44.552Z,958.65
2023-03-21T09:33:44.535Z,960.92
2023-03-21T09:34:44.545Z,963.10
2023-03-21T09:35:44.599Z,966.03
2023-03-21T09:36:44.510Z,969.02
2023-03-21T09:37:44.467Z,971.33
2023-03-21T09:38:44.467Z,971.64
2023-03-21T09:39:44.476Z,969.28
2023-03-21T09:40:44.480Z,964.67
2023-03-21T09:41:44.456Z,960.49
2023-03-21T09:42:44.508Z,957.51
2023-03-21T09:43:44.431Z,957.36
2023-03-21T09:44:44.405Z,958.93
2023-03-21T09:45:44.398Z,960.75
2023-03-21T09:46:44.441Z,961.92
2023-03-21T09:47:44.436Z,962.33
2023-03-21T09:48:54.393Z,963.12
2023-03-21T09:49:45.382Z,965.21
2023-03-21T09:50:44.364Z,962.74
2023-03-21T09:51:44.318Z,958.66
2023-03-21T09:52:44.310Z,956.18
2023-03-21T09:53:44.298Z,952.75
2023-03-21T09:54:44.316Z,951.45
2023-03-21T09:55:44.280Z,952.33
2023-03-21T09:56:44.248Z,952.29
2023-03-21T09:57:44.264Z,955.09
2023-03-21T09:58:44.267Z,956.47
2023-03-21T09:59:44.278Z,956.47
2023-03-21T10:00:44.237Z,956.47
2023-03-21T10:01:44.210Z,956.74
2023-03-21T10:02:44.193Z,958.09
2023-03-21T10:03:44.195Z,960.51
2023-03-21T10:04:44.249Z,964.37
2023-03-21T10:05:44.171Z,968.95
2023-03-21T10:06:44.129Z,973.82
2023-03-21T10:07:44.138Z,976.93
2023-03-21T10:08:44.427Z,979.26
2023-03-21T10:09:44.136Z,982.50
2023-03-21T10:10:44.090Z,985.12
2023-03-21T10:11:44.338Z,987.22
2023-03-21T10:12:44.068Z,988.11
2023-03-21T10:13:44.054Z,988.93
2023-03-21T10:14:44.378Z,988.78
2023-03-21T10:15:44.089Z,988.72
2023-03-21T10:16:44.075Z,990.03
2023-03-21T10:17:44.031Z,991.99
2023-03-21T10:18:49.343Z,994.21
2023-03-21T10:19:44.358Z,996.69
2023-03-21T10:20:46.739Z,999.06
2023-03-21T10:21:59.735Z,1000.48
2023-03-21T10:22:44.976Z,1002.50
2023-03-21T10:23:47.870Z,1004.46
2023-03-21T10:24:44.000Z,1007.46
2023-03-21T10:25:43.916Z,1009.26
2023-03-21T10:26:47.840Z,1010.09
2023-03-21T10:27:43.894Z,1009.26
2023-03-21T10:28:52.854Z,1006.79
2023-03-21T10:29:44.946Z,1003.28
2023-03-21T10:30:43.883Z,998.97
2023-03-21T10:31:44.001Z,994.50
2023-03-21T10:32:43.916Z,988.98
2023-03-21T10:33:43.852Z,984.11
2023-03-21T10:34:43.825Z,979.63
2023-03-21T10:35:43.876Z,975.97
2023-03-21T10:36:43.824Z,973.26
2023-03-21T10:37:43.772Z,970.70
2023-03-21T10:38:45.678Z,969.96
2023-03-21T10:39:43.748Z,969.21
2023-03-21T10:40:46.536Z,969.03
2023-03-21T10:41:43.796Z,969.85
2023-03-21T10:42:43.732Z,969.71
2023-03-21T10:43:43.733Z,969.29
2023-03-21T10:44:43.701Z,968.20
2023-03-21T10:45:43.771Z,967.39
2023-03-21T10:46:44.153Z,967.88
2023-03-21T10:47:43.981Z,966.64
2023-03-21T10:48:43.816Z,965.26
2023-03-21T10:50:06.317Z,964.97
2023-03-21T10:50:44.691Z,966.40
2023-03-21T10:51:45.681Z,967.58
2023-03-21T10:52:43.601Z,970.57
2023-03-21T10:53:43.612Z,974.03
2023-03-21T10:54:43.582Z,976.18
2023-03-21T10:55:43.603Z,978.18
2023-03-21T10:56:43.590Z,980.10
2023-03-21T10:57:44.339Z,982.43
2023-03-21T10:58:43.852Z,983.12
2023-03-21T10:59:45.342Z,982.63
2023-03-21T11:00:43.591Z,979.72
2023-03-21T11:01:43.568Z,978.12
2023-03-21T11:02:43.571Z,976.53
2023-03-21T11:03:43.765Z,975.32
2023-03-21T11:04:43.493Z,973.13
2023-03-21T11:05:43.473Z,971.85
2023-03-21T11:06:43.452Z,971.46
2023-03-21T11:07:43.433Z,973.09
2023-03-21T11:08:43.438Z,974.99
2023-03-21T11:09:43.424Z,978.21
2023-03-21T11:10:43.394Z,981.48
2023-03-21T11:11:43.396Z,985.47
2023-03-21T11:12:43.365Z,989.08
2023-03-21T11:13:43.401Z,992.31
2023-03-21T11:14:43.372Z,993.59
2023-03-21T11:15:43.389Z,993.23
2023-03-21T11:16:43.468Z,989.61
2023-03-21T11:17:43.329Z,984.71
2023-03-21T11:18:43.322Z,979.90
2023-03-21T11:19:43.319Z,975.35
2023-03-21T11:20:43.295Z,972.22
2023-03-21T11:21:43.293Z,969.77
2023-03-21T11:22:43.279Z,968.91
2023-03-21T11:23:43.271Z,968.40
2023-03-21T11:24:45.016Z,969.18
2023-03-21T11:25:43.454Z,971.72
2023-03-21T11:26:43.251Z,975.41
2023-03-21T11:27:43.201Z,978.63
2023-03-21T11:28:43.204Z,980.21
2023-03-21T11:29:43.180Z,982.12
2023-03-21T11:30:43.244Z,983.05
2023-03-21T11:31:43.174Z,984.46
2023-03-21T11:32:43.153Z,984.78
2023-03-21T11:33:43.530Z,984.46
2023-03-21T11:34:43.146Z,982.71
2023-03-21T11:35:43.172Z,980.34
2023-03-21T11:36:43.184Z,977.08
2023-03-21T11:37:43.094Z,976.24
2023-03-21T11:38:43.102Z,975.76
2023-03-21T11:39:43.105Z,975.45
2023-03-21T11:40:43.091Z,975.06
2023-03-21T11:41:43.377Z,972.98
2023-03-21T11:42:43.059Z,971.81
2023-03-21T11:43:43.039Z,970.68
2023-03-21T11:44:43.030Z,970.97
2023-03-21T11:45:43.086Z,972.67
2023-03-21T11:46:43.040Z,974.29
2023-03-21T11:47:43.077Z,974.82
2023-03-21T11:48:42.995Z,972.83
2023-03-21T11:49:42.958Z,968.03
2023-03-21T11:50:42.963Z,964.90
2023-03-21T11:51:42.921Z,961.19
2023-03-21T11:52:42.930Z,957.40
2023-03-21T11:53:42.937Z,956.27
2023-03-21T11:54:42.912Z,956.12
2023-03-21T11:55:45.678Z,958.89
2023-03-21T11:56:43.173Z,962.45
2023-03-21T11:57:42.857Z,967.17
2023-03-21T11:58:44.070Z,972.36
2023-03-21T11:59:42.855Z,974.80
2023-03-21T12:00:43.161Z,976.96
2023-03-21T12:01:42.876Z,979.57
2023-03-21T12:02:42.858Z,983.26
2023-03-21T12:03:48.496Z,987.18
2023-03-21T12:04:43.882Z,989.66
2023-03-21T12:05:42.791Z,992.11
2023-03-21T12:06:42.769Z,993.34
2023-03-21T12:07:42.757Z,994.52
2023-03-21T12:08:42.754Z,995.87
2023-03-21T12:09:45.554Z,995.07
2023-03-21T12:10:42.748Z,994.78
2023-03-21T12:11:42.716Z,995.51
2023-03-21T12:12:42.688Z,995.79
2023-03-21T12:13:42.974Z,996.16
2023-03-21T12:14:42.684Z,995.47
2023-03-21T12:15:43.079Z,995.38
2023-03-21T12:16:42.748Z,997.08
2023-03-21T12:17:42.678Z,999.71
2023-03-21T12:18:42.621Z,1002.03
2023-03-21T12:19:42.618Z,1003.50
2023-03-21T12:20:42.594Z,1003.99
2023-03-21T12:21:42.598Z,1002.80
2023-03-21T12:22:42.573Z,1000.40
2023-03-21T12:23:42.559Z,998.11
2023-03-21T12:24:42.550Z,996.88
2023-03-21T12:25:42.560Z,995.73
2023-03-21T12:26:42.560Z,995.33
2023-03-21T12:27:42.520Z,995.94
2023-03-21T12:28:42.548Z,995.34
2023-03-21T12:29:42.489Z,994.11